Prundu, Romania
Current Conditions -  °F | °C
As of 12:30 AM on Tuesday 25 Nov 2014 (Local Time) from LRBS Reporting Station
Clear Clear  
Wind Chill: 25°   Ceiling: Unl
Heat Index: 32°   Visibility: 5mi
Dew Point: 30°   Wind: 8mph
Humidity: 93%   Direction: 40°NE
Pressure: 30.45"   Gusts: NA
Location:  44.1°N, 26.23°E
Report Text: LRBS 242130Z 04007KT 8000 NSC 00/M01 Q1031 NOSIG
Loading
Personal Weather Stations






























Interactive Weather Map New forecast layout! Learn more

10-Day Weather Forecast

Advertisements
Track Severe Weather on mobile